Time;durP1;ratioP1;P1;durP2;ratioP2;P2;SDS_P1;SDS_P2;PMS_P1;PMS_P2;Temp;Humidity;BMP_temperature;BMP_pressure;BME280_temperature;BME280_humidity;BME280_pressure;Samples;Min_cycle;Max_cycle;Signal;HPM_P1;HPM_P2
2022/07/26 04:54:14;;;;;;;9.43;4.80;;;;;;;22.18;71.34;100006.63;2120570;27;20372;-65
2022/07/26 04:55:16;;;;;;;9.30;5.65;;;;;;;22.19;71.27;100002.72;2092685;28;20404;-66
2022/07/26 04:56:18;;;;;;;9.25;5.60;;;;;;;22.17;71.82;100000.38;2095869;28;20040;-64
2022/07/26 04:57:19;;;;;;;9.30;6.07;;;;;;;22.17;72.02;100003.09;2095863;28;20037;-63
2022/07/26 04:58:24;;;;;;;10.10;6.25;;;;;;;22.10;72.45;100005.72;2082955;28;20033;-63
2022/07/26 04:59:28;;;;;;;9.23;5.30;;;;;;;22.06;73.01;100010.34;2076198;28;20048;-63
2022/07/26 05:00:32;;;;;;;11.77;5.60;;;;;;;22.07;73.14;100016.59;2079381;28;20045;-63
2022/07/26 05:01:36;;;;;;;8.65;5.00;;;;;;;22.02;73.58;100016.94;2063320;28;20049;-63
2022/07/26 05:02:40;;;;;;;8.73;5.70;;;;;;;22.04;73.50;100026.38;2006262;28;20046;-63
2022/07/26 05:03:45;;;;;;;7.53;5.13;;;;;;;22.07;73.42;100024.81;1189235;28;10001072;-63
2022/07/26 05:04:47;;;;;;;9.68;5.88;;;;;;;22.08;73.12;100029.16;2060012;28;20043;-64
2022/07/26 05:05:50;;;;;;;8.60;5.43;;;;;;;22.06;73.70;100032.25;2078122;28;20049;-64
2022/07/26 05:06:52;;;;;;;8.48;5.95;;;;;;;22.07;73.74;100027.56;2070845;28;21469;-63
2022/07/26 05:07:56;;;;;;;9.55;5.80;;;;;;;22.08;73.69;100037.38;2071129;28;20061;-63
2022/07/26 05:08:59;;;;;;;12.30;5.20;;;;;;;22.04;74.00;100036.53;2062593;28;20701;-63
2022/07/26 05:10:05;;;;;;;9.80;6.00;;;;;;;22.06;73.92;100039.66;2060268;28;20132;-63
2022/07/26 05:11:06;;;;;;;9.07;5.30;;;;;;;22.05;74.08;100029.88;2061094;28;20551;-63
2022/07/26 05:12:11;;;;;;;9.23;5.90;;;;;;;22.05;74.24;100029.88;2061706;28;20046;-63
2022/07/26 05:13:13;;;;;;;7.70;5.78;;;;;;;22.02;74.25;100019.66;2066212;28;20042;-63
2022/07/26 05:14:15;;;;;;;8.38;4.88;;;;;;;22.02;74.13;100022.41;2068375;28;20052;-63
2022/07/26 05:15:18;;;;;;;10.70;5.43;;;;;;;22.01;74.24;100012.63;2050979;28;20136;-64
2022/07/26 05:16:20;;;;;;;9.60;5.68;;;;;;;21.96;74.34;100011.78;2058994;28;20042;-64
2022/07/26 05:17:24;;;;;;;9.63;4.93;;;;;;;21.89;74.69;100014.41;2067362;28;20030;-63
2022/07/26 05:18:30;;;;;;;10.57;5.35;;;;;;;21.83;74.78;100018.63;2054918;28;20438;-63
2022/07/26 05:19:32;;;;;;;11.40;5.15;;;;;;;21.70;75.63;100004.34;2052592;28;20039;-64
2022/07/26 05:20:39;;;;;;;8.13;4.78;;;;;;;21.63;76.20;99997.97;2040859;28;20059;-63
2022/07/26 05:21:41;;;;;;;7.43;4.78;;;;;;;21.61;76.18;100006.53;2052988;28;20734;-63
2022/07/26 05:22:43;;;;;;;6.65;4.32;;;;;;;21.66;76.31;100006.25;2066342;28;20038;-63
2022/07/26 05:23:46;;;;;;;8.60;4.80;;;;;;;21.65;76.27;100007.38;2068072;28;20671;-63
2022/07/26 05:24:48;;;;;;;5.97;4.55;;;;;;;21.65;76.37;100007.38;2061986;28;20061;-63
2022/07/26 05:25:51;;;;;;;6.90;4.53;;;;;;;21.68;76.43;100000.38;2060620;28;20057;-64
2022/07/26 05:26:53;;;;;;;5.80;4.50;;;;;;;21.66;76.77;100003.50;2053150;28;20611;-63
2022/07/26 05:27:58;;;;;;;7.78;4.82;;;;;;;21.60;77.09;100006.91;2049015;28;20043;-63
2022/07/26 05:29:00;;;;;;;8.45;4.53;;;;;;;21.61;77.43;99994.81;2058126;28;20033;-63
2022/07/26 05:30:02;;;;;;;7.35;4.70;;;;;;;21.64;77.01;99983.13;2043565;28;20052;-63
2022/07/26 05:31:04;;;;;;;6.03;4.55;;;;;;;21.58;76.88;99974.44;2062491;28;20036;-61
2022/07/26 05:32:07;;;;;;;9.10;4.15;;;;;;;21.50;76.98;99945.38;2068555;28;20417;-63
2022/07/26 05:33:09;;;;;;;6.55;4.03;;;;;;;21.45;76.95;99949.25;2055496;28;20039;-63
2022/07/26 05:34:13;;;;;;;5.45;3.97;;;;;;;21.39;77.48;99958.91;2055631;28;20637;-63
2022/07/26 05:35:15;;;;;;;5.63;4.13;;;;;;;21.41;77.74;99980.44;2061231;28;20061;-64
2022/07/26 05:36:20;;;;;;;5.88;4.20;;;;;;;21.46;77.61;99989.09;2069642;28;20437;-63
2022/07/26 05:37:22;;;;;;;6.03;3.72;;;;;;;21.45;77.66;99994.94;2061726;28;20038;-63
2022/07/26 05:38:32;;;;;;;5.10;3.67;;;;;;;21.44;77.85;100001.59;2056533;28;20599;-63
2022/07/26 05:39:34;;;;;;;8.85;3.38;;;;;;;21.50;77.64;99995.44;2063824;28;20046;-64
2022/07/26 05:40:37;;;;;;;7.47;3.35;;;;;;;21.49;77.40;100004.78;2054140;28;20039;-63
2022/07/26 05:41:42;;;;;;;5.88;3.40;;;;;;;21.43;77.64;100010.91;2048218;28;20193;-63
2022/07/26 05:42:44;;;;;;;5.45;3.00;;;;;;;21.46;77.17;100008.25;2049259;28;20059;-63
2022/07/26 05:43:47;;;;;;;3.67;3.00;;;;;;;21.54;76.33;100011.13;2070588;28;20042;-63
2022/07/26 05:44:48;;;;;;;6.03;2.90;;;;;;;21.58;76.01;100009.22;2060499;28;20030;-67
2022/07/26 05:45:50;;;;;;;3.63;2.90;;;;;;;21.55;75.60;100013.47;2048032;28;20046;-64
2022/07/26 05:46:53;;;;;;;7.00;3.20;;;;;;;21.60;75.16;100017.88;2056572;28;20438;-64
2022/07/26 05:47:57;;;;;;;5.57;3.30;;;;;;;21.80;74.41;100019.34;2056316;28;20035;-64
2022/07/26 05:49:00;;;;;;;5.32;2.95;;;;;;;21.89;73.65;100019.88;2070982;28;20034;-64
2022/07/26 05:50:06;;;;;;;3.30;2.50;;;;;;;21.97;72.86;100021.56;2069854;28;20496;-64
2022/07/26 05:51:10;;;;;;;6.55;3.15;;;;;;;21.99;72.70;100021.97;2056091;28;20501;-64
2022/07/26 05:52:11;;;;;;;7.50;2.78;;;;;;;22.08;72.17;100024.47;2055608;28;20038;-64
2022/07/26 05:53:19;;;;;;;4.25;2.90;;;;;;;22.07;72.14;100028.38;2047674;28;20455;-63
2022/07/26 05:54:24;;;;;;;3.95;2.78;;;;;;;21.94;72.32;100027.78;2050012;28;20055;-64
2022/07/26 05:55:27;;;;;;;8.88;2.70;;;;;;;21.97;72.39;100035.25;2058058;28;20421;-64
2022/07/26 05:56:31;;;;;;;6.65;2.97;;;;;;;21.95;72.50;100028.56;2060863;28;20050;-65
2022/07/26 05:57:34;;;;;;;4.78;2.67;;;;;;;21.86;72.80;100030.78;2061628;28;20045;-64
2022/07/26 05:58:35;;;;;;;5.63;2.83;;;;;;;21.98;72.54;100047.78;2061239;28;20051;-64
2022/07/26 05:59:38;;;;;;;6.78;3.13;;;;;;;21.95;72.45;100037.56;2061790;28;20537;-64
2022/07/26 06:00:42;;;;;;;4.55;2.70;;;;;;;22.01;72.02;100050.94;2053548;28;20467;-64
2022/07/26 06:01:44;;;;;;;7.43;2.88;;;;;;;21.94;72.25;100052.41;2053465;28;20047;-64
2022/07/26 06:02:47;;;;;;;8.18;2.78;;;;;;;21.94;72.31;100057.09;2060130;28;20506;-64
2022/07/26 06:03:48;;;;;;;5.40;2.80;;;;;;;21.92;72.30;100053.94;2060927;28;20057;-64
2022/07/26 06:04:51;;;;;;;5.93;2.92;;;;;;;21.91;72.45;100052.34;2051038;28;20514;-64
2022/07/26 06:05:57;;;;;;;5.72;2.80;;;;;;;21.91;72.24;100055.91;2056618;28;20047;-64
2022/07/26 06:06:59;;;;;;;6.75;2.70;;;;;;;21.90;72.49;100057.03;2055449;28;20047;-64
2022/07/26 06:08:05;;;;;;;4.30;2.83;;;;;;;21.88;72.64;100062.09;2056492;28;20047;-64
2022/07/26 06:09:09;;;;;;;5.20;2.92;;;;;;;21.87;72.60;100062.44;2064658;28;20034;-64
2022/07/26 06:10:12;;;;;;;5.82;2.85;;;;;;;21.82;72.89;100055.34;2055875;28;20645;-65
2022/07/26 06:11:14;;;;;;;5.30;2.80;;;;;;;21.80;73.07;100046.72;2056069;28;20069;-65
2022/07/26 06:12:17;;;;;;;5.63;3.38;;;;;;;21.69;73.64;100051.22;2055569;28;20043;-64
2022/07/26 06:13:18;;;;;;;5.07;2.70;;;;;;;21.72;73.50;100045.00;2047864;28;20043;-65
2022/07/26 06:14:21;;;;;;;3.80;2.78;;;;;;;21.75;73.36;100049.75;2055798;28;20047;-65
2022/07/26 06:15:23;;;;;;;5.35;2.80;;;;;;;21.79;73.31;100049.81;2055686;28;20050;-64
2022/07/26 06:16:25;;;;;;;5.15;3.05;;;;;;;21.81;73.29;100048.28;2055237;28;20438;-64
2022/07/26 06:17:29;;;;;;;4.95;3.45;;;;;;;21.83;73.44;100047.94;2055620;28;20042;-64
2022/07/26 06:18:34;;;;;;;4.80;2.90;;;;;;;21.82;73.49;100044.41;2056039;28;20061;-64
2022/07/26 06:19:41;;;;;;;7.22;3.75;;;;;;;21.82;73.40;100040.88;2055831;28;20042;-64
2022/07/26 06:20:45;;;;;;;6.88;3.50;;;;;;;21.84;73.23;100052.25;2056321;28;20641;-64
2022/07/26 06:21:47;;;;;;;6.07;3.60;;;;;;;21.85;73.07;100057.34;2063206;28;20047;-64
2022/07/26 06:22:51;;;;;;;6.50;3.92;;;;;;;21.85;73.28;100048.38;2055025;28;20058;-64
2022/07/26 06:23:53;;;;;;;4.03;3.00;;;;;;;21.79;73.53;100047.09;2039757;29;20042;-64
2022/07/26 06:24:55;;;;;;;4.43;3.38;;;;;;;21.78;73.73;100045.50;2039614;28;20554;-64
2022/07/26 06:26:00;;;;;;;5.13;2.50;;;;;;;21.77;73.65;100047.44;2054620;28;20042;-64
2022/07/26 06:27:02;;;;;;;4.40;2.88;;;;;;;21.71;73.98;100048.91;2055585;28;20047;-64
2022/07/26 06:28:07;;;;;;;4.43;2.50;;;;;;;21.66;74.33;100043.75;2055722;28;20050;-65
2022/07/26 06:29:11;;;;;;;6.95;2.67;;;;;;;21.64;74.56;100049.59;2048845;28;20787;-64
2022/07/26 06:30:16;;;;;;;3.97;2.50;;;;;;;21.65;74.26;100045.69;2063937;28;20716;-64
2022/07/26 06:31:18;;;;;;;5.85;3.03;;;;;;;21.64;74.06;100037.84;2054666;28;20055;-65
2022/07/26 06:32:23;;;;;;;5.13;3.00;;;;;;;21.64;73.99;100032.38;2049832;28;21325;-65
2022/07/26 06:33:25;;;;;;;3.42;2.72;;;;;;;21.65;73.91;100039.44;2056242;28;20511;-65
2022/07/26 06:34:27;;;;;;;4.75;2.90;;;;;;;21.67;73.79;100050.81;2055456;28;20046;-65
2022/07/26 06:35:34;;;;;;;4.90;2.63;;;;;;;21.67;73.88;100059.00;2055659;28;20046;-65
2022/07/26 06:36:41;;;;;;;4.90;2.70;;;;;;;21.68;73.82;100066.84;2048019;29;20047;-65
2022/07/26 06:37:43;;;;;;;5.43;2.45;;;;;;;21.69;73.78;100078.56;2050596;28;20403;-65
2022/07/26 06:38:45;;;;;;;4.95;2.63;;;;;;;21.65;74.27;100083.97;2064198;28;20509;-64
2022/07/26 06:39:47;;;;;;;4.20;2.72;;;;;;;21.63;74.38;100083.56;2056270;28;20053;-65
2022/07/26 06:40:51;;;;;;;5.55;2.75;;;;;;;21.59;74.62;100082.69;2056427;28;20106;-65
2022/07/26 06:41:53;;;;;;;5.78;2.50;;;;;;;21.60;74.51;100087.03;2048828;28;20039;-64
2022/07/26 06:42:56;;;;;;;5.53;3.03;;;;;;;21.49;75.30;100078.63;2056910;28;20091;-64
2022/07/26 06:43:58;;;;;;;5.30;3.35;;;;;;;21.45;75.36;100077.78;2063517;28;20050;-65
2022/07/26 06:45:01;;;;;;;4.13;2.65;;;;;;;21.50;75.14;100082.16;2056669;28;20422;-65
2022/07/26 06:46:03;;;;;;;3.17;2.50;;;;;;;21.43;75.38;100077.34;2056910;28;20046;-64
2022/07/26 06:47:05;;;;;;;8.70;2.65;;;;;;;21.45;75.31;100074.25;2041233;29;20059;-65
2022/07/26 06:48:08;;;;;;;9.00;4.07;;;;;;;21.35;75.68;100072.09;2041511;28;20060;-64
2022/07/26 06:49:11;;;;;;;6.60;3.10;;;;;;;21.32;75.85;100078.28;2056850;28;20430;-64
2022/07/26 06:50:14;;;;;;;3.72;2.50;;;;;;;21.38;75.29;100080.41;2057136;28;20046;-64
2022/07/26 06:51:15;;;;;;;5.38;2.72;;;;;;;21.43;75.10;100077.34;2064903;28;20077;-64
2022/07/26 06:52:19;;;;;;;5.40;2.72;;;;;;;21.49;75.04;100078.63;2064533;28;20057;-65
2022/07/26 06:53:20;;;;;;;5.35;3.03;;;;;;;;;;2064766;28;20501;-64
2022/07/26 06:54:23;;;;;;;3.40;2.60;;;;;;;21.59;74.24;100079.19;2064041;28;20057;-65
2022/07/26 06:55:25;;;;;;;5.32;2.80;;;;;;;21.63;73.85;100082.78;2062509;28;20046;-66
2022/07/26 06:56:31;;;;;;;4.47;2.58;;;;;;;21.63;74.06;100085.53;2065225;28;20041;-66
2022/07/26 06:57:35;;;;;;;4.45;2.67;;;;;;;21.62;73.86;100079.25;2048958;29;20043;-67
2022/07/26 06:58:43;;;;;;;6.18;3.05;;;;;;;21.66;73.81;100087.53;2045593;29;20059;-66
2022/07/26 06:59:48;;;;;;;5.15;2.90;;;;;;;21.63;73.83;100091.00;2043826;28;20047;-67
2022/07/26 07:00:50;;;;;;;6.78;2.60;;;;;;;21.66;73.60;100087.53;2056313;28;20058;-67
2022/07/26 07:01:52;;;;;;;5.10;2.95;;;;;;;21.62;74.29;100092.13;2054811;28;20069;-66
2022/07/26 07:02:57;;;;;;;5.80;2.70;;;;;;;21.65;73.99;100102.34;2058737;28;20161;-67
2022/07/26 07:04:01;;;;;;;6.05;2.90;;;;;;;21.59;73.84;100101.06;2046327;28;20043;-67
2022/07/26 07:05:06;;;;;;;3.50;2.40;;;;;;;21.55;73.94;100094.75;2041925;28;20047;-66
2022/07/26 07:06:08;;;;;;;4.95;2.25;;;;;;;21.57;74.08;100092.44;2050724;28;20027;-66
2022/07/26 07:07:10;;;;;;;5.68;2.58;;;;;;;21.59;74.07;100098.34;2037449;28;20117;-66
2022/07/26 07:08:13;;;;;;;4.78;2.70;;;;;;;21.63;73.90;100102.72;1130687;29;10000752;-67
2022/07/26 07:09:17;;;;;;;3.22;1.90;;;;;;;21.64;73.90;100098.03;2022347;29;20395;-66
2022/07/26 07:10:19;;;;;;;5.38;2.58;;;;;;;21.64;73.70;100098.03;2019688;29;20691;-66
2022/07/26 07:11:21;;;;;;;4.63;2.53;;;;;;;21.61;73.18;100096.81;2028389;29;20048;-67
2022/07/26 07:12:24;;;;;;;3.83;2.58;;;;;;;21.60;73.41;100100.72;2024090;29;20338;-66
2022/07/26 07:13:26;;;;;;;3.50;2.30;;;;;;;21.63;73.42;100107.41;2026543;29;20048;-65
2022/07/26 07:14:27;;;;;;;7.80;2.42;;;;;;;21.67;73.20;100102.78;2017573;29;20056;-66
2022/07/26 07:15:31;;;;;;;5.35;2.75;;;;;;;21.65;72.97;100102.34;2010687;29;20041;-66
2022/07/26 07:16:36;;;;;;;5.68;2.83;;;;;;;21.63;73.33;100093.72;2033572;28;20242;-65
2022/07/26 07:17:38;;;;;;;17.40;3.53;;;;;;;21.62;73.25;100092.13;2040274;28;20606;-65
2022/07/26 07:18:41;;;;;;;8.48;3.00;;;;;;;21.58;73.79;100094.03;2032268;29;20043;-65
2022/07/26 07:19:45;;;;;;;5.07;2.67;;;;;;;21.61;73.97;100087.81;2033010;29;20060;-66
2022/07/26 07:20:48;;;;;;;5.28;2.70;;;;;;;21.60;74.27;100091.72;2041300;28;20035;-65
2022/07/26 07:21:55;;;;;;;5.85;2.80;;;;;;;21.62;74.20;100090.19;2039873;28;20419;-67
2022/07/26 07:22:59;;;;;;;6.70;2.78;;;;;;;21.60;74.44;100087.03;2040463;28;20039;-67
2022/07/26 07:24:02;;;;;;;4.10;2.42;;;;;;;21.51;74.18;100100.94;2025280;29;20546;-65
2022/07/26 07:25:05;;;;;;;4.07;2.80;;;;;;;21.55;74.16;100094.75;2017526;29;20036;-63
2022/07/26 07:26:07;;;;;;;3.17;2.60;;;;;;;21.47;74.28;100093.84;2031646;29;20040;-67
2022/07/26 07:27:09;;;;;;;5.35;2.30;;;;;;;21.54;74.15;100093.19;2030881;29;20066;-66
2022/07/26 07:28:11;;;;;;;5.18;2.70;;;;;;;21.50;74.06;100095.81;2031879;29;20093;-64
2022/07/26 07:29:19;;;;;;;6.03;2.72;;;;;;;21.57;73.92;100097.94;2032852;29;20496;-67
2022/07/26 07:30:21;;;;;;;5.75;2.72;;;;;;;21.51;74.39;100098.22;2021637;28;20048;-67
2022/07/26 07:31:25;;;;;;;4.57;2.55;;;;;;;21.48;74.72;100098.16;2040994;28;20031;-65
2022/07/26 07:32:32;;;;;;;5.25;2.60;;;;;;;21.48;74.50;100101.69;2029167;29;23616;-65
2022/07/26 07:33:34;;;;;;;5.18;2.65;;;;;;;21.53;74.53;100106.03;2031810;29;20064;-66
2022/07/26 07:34:36;;;;;;;12.25;3.33;;;;;;;21.55;74.05;100111.94;2023952;29;20060;-64
2022/07/26 07:35:39;;;;;;;7.07;2.40;;;;;;;21.55;73.86;100113.91;2015919;29;20041;-64
2022/07/26 07:36:42;;;;;;;6.80;3.00;;;;;;;21.56;73.81;100115.47;2031160;29;20330;-66
2022/07/26 07:37:54;;;;;;;6.72;3.33;;;;;;;21.59;73.77;100120.22;2031928;29;20063;-66
2022/07/26 07:38:59;;;;;;;6.50;3.35;;;;;;;21.59;73.65;100117.47;2030299;28;20043;-65
2022/07/26 07:40:11;;;;;;;8.34;3.46;;;;;;;21.56;73.63;100119.00;1890105;29;10001399;-63
2022/07/26 07:41:13;;;;;;;6.88;3.22;;;;;;;21.59;73.45;100126.47;1503115;29;10001813;-66
2022/07/26 07:42:19;;;;;;;6.85;3.05;;;;;;;21.63;73.46;100126.56;2011460;29;20142;-65
2022/07/26 07:43:21;;;;;;;4.97;2.60;;;;;;;21.64;73.14;100125.41;2010243;29;20056;-66
2022/07/26 07:44:23;;;;;;;8.48;2.90;;;;;;;21.65;72.81;100133.22;2016835;29;20202;-67
2022/07/26 07:45:27;;;;;;;8.15;3.15;;;;;;;21.66;72.75;100128.56;2032526;29;20074;-68
2022/07/26 07:46:29;;;;;;;7.03;3.53;;;;;;;21.68;72.64;100137.19;2032148;29;20040;-65
2022/07/26 07:47:35;;;;;;;7.00;3.58;;;;;;;21.67;72.77;100141.09;2024548;29;20051;-67
2022/07/26 07:48:40;;;;;;;6.55;3.65;;;;;;;21.57;73.34;100136.22;2024920;29;20052;-67
2022/07/26 07:49:44;;;;;;;6.13;2.90;;;;;;;21.58;73.62;100138.56;2025855;29;20048;-67
2022/07/26 07:50:46;;;;;;;5.18;2.88;;;;;;;21.57;73.32;100138.97;2024537;29;20055;-67
2022/07/26 07:51:50;;;;;;;4.32;2.67;;;;;;;21.59;73.41;100140.16;2032622;29;20059;-66
2022/07/26 07:52:55;;;;;;;6.43;2.55;;;;;;;21.67;73.44;100135.63;2032380;29;22468;-67
2022/07/26 07:53:57;;;;;;;6.43;2.50;;;;;;;21.63;74.10;100132.03;2037883;28;20122;-67
2022/07/26 07:55:00;;;;;;;6.43;2.78;;;;;;;21.66;73.86;100128.56;2047974;28;20043;-67
2022/07/26 07:56:04;;;;;;;7.03;2.78;;;;;;;21.70;73.58;100130.22;2047478;28;20601;-66
2022/07/26 07:57:06;;;;;;;7.70;2.83;;;;;;;21.82;73.69;100134.72;2040895;28;20043;-68
2022/07/26 07:58:15;;;;;;;6.60;2.85;;;;;;;21.81;73.94;100135.84;2032242;29;20188;-67
2022/07/26 07:59:17;;;;;;;6.82;2.50;;;;;;;21.83;73.16;100139.03;2024562;29;20044;-68
2022/07/26 08:00:22;;;;;;;5.75;2.58;;;;;;;21.91;72.63;100135.25;2024857;28;20137;-68
2022/07/26 08:01:27;;;;;;;5.47;2.63;;;;;;;21.89;73.14;100136.78;2023110;29;20055;-68
2022/07/26 08:02:30;;;;;;;5.63;3.00;;;;;;;21.92;73.13;100133.31;2032949;28;20047;-67
2022/07/26 08:03:36;;;;;;;5.63;3.08;;;;;;;21.95;72.55;100136.09;2039456;28;20682;-67
2022/07/26 08:04:40;;;;;;;11.45;4.00;;;;;;;22.01;71.92;100144.03;2048240;28;20049;-68
2022/07/26 08:05:47;;;;;;;5.50;3.17;;;;;;;22.02;72.30;100143.66;2032335;29;20042;-68
2022/07/26 08:06:50;;;;;;;12.50;4.05;;;;;;;22.06;72.64;100135.50;2033991;28;20035;-67
2022/07/26 08:07:57;;;;;;;10.90;4.20;;;;;;;22.04;72.98;100135.88;2038771;28;20050;-67
2022/07/26 08:08:58;;;;;;;7.82;3.30;;;;;;;22.06;72.62;100140.97;2032912;28;20054;-66
2022/07/26 08:10:00;;;;;;;7.45;4.15;;;;;;;22.04;72.60;100129.59;2032379;29;20054;-65
2022/07/26 08:11:03;;;;;;;7.82;3.72;;;;;;;22.02;71.96;100140.91;2033749;28;20043;-65
2022/07/26 08:12:10;;;;;;;4.63;2.78;;;;;;;22.03;71.46;100147.94;2033022;29;20052;-67
2022/07/26 08:13:12;;;;;;;7.13;2.90;;;;;;;22.07;71.69;100142.53;2045314;28;20485;-68
2022/07/26 08:14:14;;;;;;;5.13;2.75;;;;;;;22.21;71.56;100137.34;2054330;28;20034;-71
2022/07/26 08:15:16;;;;;;;4.72;2.90;;;;;;;22.28;71.07;100142.13;2041858;29;20047;-68
2022/07/26 08:16:21;;;;;;;6.07;2.65;;;;;;;22.59;70.59;100146.50;2041938;28;20039;-66
2022/07/26 08:17:25;;;;;;;7.30;2.35;;;;;;;23.23;68.88;100143.81;2040974;28;20035;-68
2022/07/26 08:18:28;;;;;;;7.20;2.47;;;;;;;23.50;68.03;100150.00;2033460;29;21317;-67
2022/07/26 08:19:31;;;;;;;5.97;2.58;;;;;;;23.77;67.05;100142.44;2034689;28;20039;-73
2022/07/26 08:20:35;;;;;;;6.00;3.22;;;;;;;23.62;67.14;100140.72;2039609;28;21504;-68
2022/07/26 08:21:38;;;;;;;6.18;2.92;;;;;;;25.73;61.53;100137.28;2040405;28;20670;-67
2022/07/26 08:22:40;;;;;;;4.50;2.47;;;;;;;25.41;61.78;100131.72;2024775;29;20068;-67
2022/07/26 08:23:43;;;;;;;5.10;2.50;;;;;;;26.46;59.70;100131.38;2032444;29;20043;-65
2022/07/26 08:24:45;;;;;;;5.25;2.22;;;;;;;28.21;54.58;100126.91;2024552;29;20044;-66
2022/07/26 08:25:47;;;;;;;6.85;2.50;;;;;;;28.49;53.41;100125.84;1985232;29;20536;-66
2022/07/26 08:26:52;;;;;;;7.07;2.47;;;;;;;27.74;54.31;100132.00;1135096;29;10001245;-66
2022/07/26 08:27:54;;;;;;;5.10;2.20;;;;;;;27.83;54.73;100135.13;2037243;28;20654;-65
2022/07/26 08:29:06;;;;;;;8.45;3.00;;;;;;;27.21;55.69;100130.38;1871875;28;10002638;-66
2022/07/26 08:30:10;;;;;;;6.43;2.50;;;;;;;27.60;54.90;100138.41;1530222;28;10001100;-65
2022/07/26 08:31:12;;;;;;;5.72;2.20;;;;;;;29.16;51.87;100134.56;2035180;28;20381;-66
2022/07/26 08:32:18;;;;;;;4.40;2.80;;;;;;;30.93;47.42;100134.84;2037251;28;20043;-67
2022/07/26 08:33:22;;;;;;;5.18;1.70;;;;;;;31.20;46.19;100141.44;2030732;29;20074;-66
2022/07/26 08:34:23;;;;;;;4.25;2.20;;;;;;;29.76;48.17;100144.06;2035935;28;20043;-67
2022/07/26 08:35:28;;;;;;;5.35;2.25;;;;;;;29.41;49.22;100144.53;2029918;29;20059;-68
2022/07/26 08:36:33;;;;;;;3.67;2.20;;;;;;;29.29;49.23;100143.91;2029994;28;20056;-69
2022/07/26 08:37:34;;;;;;;5.03;2.28;;;;;;;29.34;49.31;100143.44;2038455;28;20070;-67
2022/07/26 08:38:39;;;;;;;7.35;2.20;;;;;;;28.68;51.11;100135.53;2038443;28;20063;-68
2022/07/26 08:39:41;;;;;;;3.63;1.73;;;;;;;27.99;51.56;100142.88;2037919;28;20047;-66
2022/07/26 08:40:44;;;;;;;5.28;1.85;;;;;;;27.53;52.89;100143.22;2038294;28;20055;-67
2022/07/26 08:41:47;;;;;;;7.07;1.90;;;;;;;27.16;53.06;100147.34;2036753;28;20047;-67
2022/07/26 08:42:53;;;;;;;4.88;1.95;;;;;;;26.64;54.18;100138.81;2039092;28;20047;-67
2022/07/26 08:44:06;;;;;;;4.70;1.80;;;;;;;26.31;55.86;100144.38;2044366;28;20050;-67
2022/07/26 08:45:12;;;;;;;4.10;1.92;;;;;;;26.24;56.28;100143.59;2037246;28;20051;-67
2022/07/26 08:46:14;;;;;;;4.95;1.77;;;;;;;26.14;56.99;100133.38;2036211;28;20051;-66
2022/07/26 08:47:21;;;;;;;3.58;1.77;;;;;;;25.93;57.71;100140.47;2044937;28;20043;-65
2022/07/26 08:48:24;;;;;;;3.95;1.92;;;;;;;25.89;56.61;100134.94;2037106;28;20170;-67
2022/07/26 08:49:25;;;;;;;4.05;1.98;;;;;;;25.73;56.45;100148.28;2022094;29;20047;-67
2022/07/26 08:50:27;;;;;;;3.60;2.05;;;;;;;25.66;56.90;100146.31;2016469;29;20143;-66
2022/07/26 08:51:30;;;;;;;4.60;1.63;;;;;;;25.57;56.75;100145.91;2030695;28;20383;-66
2022/07/26 08:52:39;;;;;;;4.07;2.03;;;;;;;25.33;57.04;100138.38;2030003;29;20476;-65
2022/07/26 08:53:44;;;;;;;4.85;1.95;;;;;;;25.29;57.44;100140.34;2030125;28;20071;-66
2022/07/26 08:54:50;;;;;;;4.65;1.70;;;;;;;25.36;57.26;100135.63;2039170;28;20186;-65
2022/07/26 08:55:56;;;;;;;5.55;1.90;;;;;;;25.24;57.87;100133.22;2036172;28;20091;-66
2022/07/26 08:57:00;;;;;;;4.53;1.70;;;;;;;25.16;58.39;100134.41;2038814;28;20039;-66
2022/07/26 08:58:03;;;;;;;15.15;2.20;;;;;;;25.12;58.55;100131.59;2037600;28;20043;-65
2022/07/26 08:59:15;;;;;;;3.95;1.80;;;;;;;25.03;58.01;100133.13;2025365;29;20056;-65
2022/07/26 09:00:23;;;;;;;4.93;1.77;;;;;;;25.07;57.94;100131.97;2027535;28;20634;-66
2022/07/26 09:01:25;;;;;;;3.20;1.50;;;;;;;25.08;58.09;100138.25;2020738;29;20606;-66
2022/07/26 09:02:39;;;;;;;5.72;2.17;;;;;;;25.14;57.79;100134.78;2040115;28;20046;-66
2022/07/26 09:03:43;;;;;;;3.92;1.70;;;;;;;25.20;57.55;100137.94;2046194;28;20043;-66
2022/07/26 09:04:48;;;;;;;4.80;2.10;;;;;;;25.28;57.68;100141.50;2040373;29;20427;-66
2022/07/26 09:05:50;;;;;;;9.20;2.38;;;;;;;25.36;57.85;100138.38;2038907;28;20044;-66
2022/07/26 09:06:59;;;;;;;5.32;2.10;;;;;;;25.45;58.43;100146.28;2039297;29;20035;-68
2022/07/26 09:08:28;;;;;;;6.50;1.90;;;;;;;25.53;58.01;100139.59;2047429;28;20043;-65
2022/07/26 09:09:36;;;;;;;2.40;1.67;;;;;;;25.49;57.94;100147.06;2042721;28;20039;-68
2022/07/26 09:10:39;;;;;;;3.58;1.63;;;;;;;25.49;58.26;100146.28;2029637;29;20100;-67
2022/07/26 09:11:42;;;;;;;6.13;2.03;;;;;;;25.49;58.20;100143.53;2039678;28;20090;-64
2022/07/26 09:12:51;;;;;;;4.50;2.05;;;;;;;25.52;57.47;100146.28;2042936;28;20043;-67
2022/07/26 09:14:02;;;;;;;4.15;1.88;;;;;;;25.50;57.46;100147.84;2038734;28;20742;-66
2022/07/26 09:15:19;;;;;;;5.88;2.05;;;;;;;25.34;57.47;100143.47;1754112;28;10001247;-65
2022/07/26 09:16:20;;;;;;;6.43;2.08;;;;;;;25.24;57.40;100135.19;1514752;29;10001685;-66
2022/07/26 09:17:24;;;;;;;4.43;1.95;;;;;;;25.29;58.09;100140.34;2023211;29;20056;-66
2022/07/26 09:18:28;;;;;;;4.32;2.00;;;;;;;25.31;58.04;100140.72;2025676;29;20047;-65
2022/07/26 09:19:30;;;;;;;5.18;1.95;;;;;;;25.30;58.06;100152.91;2028351;29;20605;-64
2022/07/26 09:20:32;;;;;;;12.60;3.58;;;;;;;25.41;57.99;100151.75;2030236;29;20896;-65
2022/07/26 09:21:35;;;;;;;5.55;2.92;;;;;;;25.42;58.06;100149.81;2011007;29;20061;-65
2022/07/26 09:23:02;;;;;;;7.95;3.17;;;;;;;25.48;57.85;100148.25;2011114;29;20056;-65
2022/07/26 09:24:06;;;;;;;8.13;2.67;;;;;;;25.53;57.79;100149.81;2031815;29;20589;-65
2022/07/26 09:25:23;;;;;;;6.78;2.60;;;;;;;25.55;56.88;100153.75;2026885;29;20642;-65
2022/07/26 09:26:25;;;;;;;8.43;2.42;;;;;;;25.58;56.65;100152.19;2030816;29;20243;-64
2022/07/26 09:27:35;;;;;;;6.30;2.47;;;;;;;25.59;57.32;100157.28;2027553;29;20044;-65
2022/07/26 09:28:37;;;;;;;5.57;2.53;;;;;;;25.62;57.22;100162.03;2023532;29;20841;-67
2022/07/26 09:29:51;;;;;;;6.90;1.80;;;;;;;25.63;56.91;100155.34;2019871;29;20049;-63
2022/07/26 09:31:00;;;;;;;6.25;2.30;;;;;;;25.62;56.97;100152.97;2027824;29;20060;-65
2022/07/26 09:32:31;;;;;;;5.72;2.05;;;;;;;25.60;55.83;100156.13;2035992;28;20052;-65
2022/07/26 09:33:50;;;;;;;7.43;1.90;;;;;;;25.51;55.23;100152.97;2034447;29;20047;-64
2022/07/26 09:34:57;;;;;;;6.18;2.33;;;;;;;25.49;56.13;100147.06;2032289;29;20063;-65
2022/07/26 09:36:01;;;;;;;4.85;2.33;;;;;;;25.46;55.44;100149.81;2034822;29;20407;-65
2022/07/26 09:37:05;;;;;;;3.35;1.80;;;;;;;25.49;55.72;100149.81;2035785;29;20048;-65
2022/07/26 09:38:16;;;;;;;5.85;2.78;;;;;;;25.55;56.11;100152.97;2009425;29;20037;-65
2022/07/26 09:39:19;;;;;;;4.75;1.98;;;;;;;25.57;56.04;100156.13;2014054;29;20053;-63
2022/07/26 09:40:22;;;;;;;4.45;2.58;;;;;;;25.62;56.23;100152.97;2020557;29;20048;-64
2022/07/26 09:41:35;;;;;;;6.55;1.92;;;;;;;25.60;55.33;100156.13;2022321;29;20052;-66
2022/07/26 09:42:37;;;;;;;6.00;2.40;;;;;;;25.66;55.17;100154.56;2024348;29;20543;-65
2022/07/26 09:43:45;;;;;;;3.75;2.05;;;;;;;25.66;54.90;100160.09;2018720;29;20239;-65
2022/07/26 09:44:49;;;;;;;4.15;1.90;;;;;;;25.66;54.95;100149.06;2013018;29;20496;-66
2022/07/26 09:46:09;;;;;;;5.38;1.98;;;;;;;25.67;55.94;100152.59;2022479;29;20496;-66
2022/07/26 09:47:14;;;;;;;4.57;1.80;;;;;;;25.67;55.60;100150.63;2037374;29;20059;-66
2022/07/26 09:48:30;;;;;;;4.43;1.58;;;;;;;25.73;55.92;100153.00;2024827;28;20061;-64
2022/07/26 09:49:32;;;;;;;3.03;1.77;;;;;;;25.75;55.83;100156.16;2013522;29;20127;-66
2022/07/26 09:50:37;;;;;;;3.67;1.77;;;;;;;25.71;55.20;100158.13;2020957;29;20060;-66
2022/07/26 09:51:44;;;;;;;2.50;1.60;;;;;;;25.65;54.67;100152.97;2028702;29;20099;-66
2022/07/26 09:53:09;;;;;;;2.70;1.55;;;;;;;25.54;54.69;100157.69;2021495;29;20509;-66